Amendola, Italy

7:51 PM CEST on April 01, 2015 (GMT +0200)
Terra Apuliae | | Change Station
CLOSE
Current Station
Personal Weather Station
Location: Manfredonia, FOGGIA
Elevation: 6 ft
Nearby Weather Stations
Active Advisory: Wind

Elev 6 ft 41.51 °N, 15.87 °E | Updated 2 minutes ago

Partly Cloudy
Partly Cloudy
57.7 °F
Feels Like 57.7 °F
N
9.3
Wind Variable Wind from West
Gusts 12.0 mph

Today
High -- | Low -- °F
--% Chance of Precip.
Yesterday
High -- | Low -- °F
Precip. -- in
6:41 AM 7:21 PM
Waxing Gibbous, 93% visible
Pressure 29.89 in
Visibility 6.2 miles
Clouds Few 4000 ft
Dew Point 48 °F
Humidity 71%
Rainfall 0.00 in
Snow Depth Not available.
UV 0 out of 12
Pollen Not available.
Air Quality Not available.
Flu Activity Not available.
METAR LIBD 011720Z 36009KT 320V030 9999 FEW040 14/09 Q1012

More Conditions Fewer Conditions

Pressure 29.89 in
Visibility 6.2 miles
Clouds Few 4000 ft
Dew Point 48 °F
Humidity 71%
Rainfall 0.00 in
Snow Depth Not available.
UV 0 out of 12
Pollen Not available.
Air Quality Not available.
Flu Activity Not available.
METAR LIBD 011720Z 36009KT 320V030 9999 FEW040 14/09 Q1012

More Conditions Fewer Conditions

10-Day Weather Forecast

Almanac

Astronomy

Apr. 01, 2015 Rise Set
Actual Time
Civil Twilight
Nautical Twilight
Astronomical Twilight
Moon
Length of Visible Light
Length of Day
Tomorrow will be .
, % of the Moon is Illuminated

Today's Extremes

Country Highs Country Lows

Community

WunderPhotos

Upload Photos

1,810,018 photos uploaded!

WunderBlogs® & News

Nearby

Air Quality

  Air Quality AQ Index Pollutant
Not available.

Snow Depth

Station Depth Elevation

Earthquake Activity

City Distance Mag. Time & Date
Minimum magnitude displayed is 2.5.

Coastal Water Temperatures

Place Temperature

Stations

Nearby Weather Stations

Station Location Temp. Windchill Dew Point Humidity Wind Precip. Elev Updated Type